sensor_id;sensor_type;location;lat;lon;timestamp;pressure;altitude;pressure_sealevel;temperature;humidity
62544;BME280;48597;49.030;1.822;2022-09-01T00:01:17;100943.00;;;24.77;41.86
62544;BME280;48597;49.030;1.822;2022-09-01T00:03:49;100942.19;;;24.77;41.88
62544;BME280;48597;49.030;1.822;2022-09-01T00:06:18;100935.09;;;24.76;41.87
62544;BME280;48597;49.030;1.822;2022-09-01T00:08:53;100942.34;;;24.75;42.21
62544;BME280;48597;49.030;1.822;2022-09-01T00:11:20;100938.81;;;24.74;41.80
62544;BME280;48597;49.030;1.822;2022-09-01T00:13:46;100935.28;;;24.74;41.67
62544;BME280;48597;49.030;1.822;2022-09-01T00:16:14;100936.31;;;24.73;41.76
62544;BME280;48597;49.030;1.822;2022-09-01T00:18:42;100942.53;;;24.73;42.15
62544;BME280;48597;49.030;1.822;2022-09-01T00:21:10;100934.66;;;24.72;41.85
62544;BME280;48597;49.030;1.822;2022-09-01T00:23:36;100941.69;;;24.73;41.98
62544;BME280;48597;49.030;1.822;2022-09-01T00:26:02;100936.31;;;24.73;41.87
62544;BME280;48597;49.030;1.822;2022-09-01T00:28:28;100942.72;;;24.72;41.78
62544;BME280;48597;49.030;1.822;2022-09-01T00:30:53;100940.03;;;24.72;41.75
62544;BME280;48597;49.030;1.822;2022-09-01T00:33:19;100932.97;;;24.71;41.84
62544;BME280;48597;49.030;1.822;2022-09-01T00:35:44;100933.78;;;24.71;41.77
62544;BME280;48597;49.030;1.822;2022-09-01T00:38:10;100939.16;;;24.71;41.71
62544;BME280;48597;49.030;1.822;2022-09-01T00:40:35;100928.59;;;24.70;41.59
62544;BME280;48597;49.030;1.822;2022-09-01T00:45:39;100929.63;;;24.69;41.69
62544;BME280;48597;49.030;1.822;2022-09-01T00:48:05;100927.94;;;24.68;41.59
62544;BME280;48597;49.030;1.822;2022-09-01T00:50:31;100929.78;;;24.67;41.73
62544;BME280;48597;49.030;1.822;2022-09-01T00:52:56;100931.47;;;24.68;41.62
62544;BME280;48597;49.030;1.822;2022-09-01T00:55:26;100927.09;;;24.67;41.66
62544;BME280;48597;49.030;1.822;2022-09-01T00:57:52;100925.44;;;24.66;41.72
62544;BME280;48597;49.030;1.822;2022-09-01T01:00:21;100922.75;;;24.66;41.80
62544;BME280;48597;49.030;1.822;2022-09-01T01:02:48;100928.94;;;24.67;41.49
62544;BME280;48597;49.030;1.822;2022-09-01T01:05:24;100923.75;;;24.65;41.45
62544;BME280;48597;49.030;1.822;2022-09-01T01:07:53;100921.06;;;24.65;41.54
62544;BME280;48597;49.030;1.822;2022-09-01T01:10:20;100918.38;;;24.65;41.47
62544;BME280;48597;49.030;1.822;2022-09-01T01:12:47;100915.84;;;24.64;41.68
62544;BME280;48597;49.030;1.822;2022-09-01T01:15:13;100918.53;;;24.64;41.53
62544;BME280;48597;49.030;1.822;2022-09-01T01:17:39;100910.47;;;24.64;41.46
62544;BME280;48597;49.030;1.822;2022-09-01T01:20:06;100915.00;;;24.63;41.34
62544;BME280;48597;49.030;1.822;2022-09-01T01:23:15;100911.50;;;24.63;41.46
62544;BME280;48597;49.030;1.822;2022-09-01T01:25:47;100913.34;;;24.62;41.39
62544;BME280;48597;49.030;1.822;2022-09-01T01:28:14;100908.16;;;24.61;41.61
62544;BME280;48597;49.030;1.822;2022-09-01T01:30:45;100910.03;;;24.60;41.60
62544;BME280;48597;49.030;1.822;2022-09-01T01:33:15;100911.69;;;24.61;41.54
62544;BME280;48597;49.030;1.822;2022-09-01T01:35:41;100916.22;;;24.61;41.47
62544;BME280;48597;49.030;1.822;2022-09-01T01:38:08;100908.31;;;24.59;41.51
62544;BME280;48597;49.030;1.822;2022-09-01T01:40:35;100913.69;;;24.59;41.54
62544;BME280;48597;49.030;1.822;2022-09-01T01:43:01;100913.06;;;24.57;41.51
62544;BME280;48597;49.030;1.822;2022-09-01T01:45:27;100918.25;;;24.59;41.37
62544;BME280;48597;49.030;1.822;2022-09-01T01:47:53;100913.06;;;24.57;41.65
62544;BME280;48597;49.030;1.822;2022-09-01T01:50:25;100907.69;;;24.57;41.32
62544;BME280;48597;49.030;1.822;2022-09-01T01:52:52;100912.22;;;24.57;41.57
62544;BME280;48597;49.030;1.822;2022-09-01T01:55:19;100904.31;;;24.55;41.30
62544;BME280;48597;49.030;1.822;2022-09-01T01:57:46;100907.00;;;24.55;41.26
62544;BME280;48597;49.030;1.822;2022-09-01T02:00:20;100905.34;;;24.54;41.46
62544;BME280;48597;49.030;1.822;2022-09-01T02:02:47;100910.72;;;24.54;41.64
62544;BME280;48597;49.030;1.822;2022-09-01T02:05:24;100907.19;;;24.54;41.23
62544;BME280;48597;49.030;1.822;2022-09-01T02:07:51;100905.53;;;24.53;41.59
62544;BME280;48597;49.030;1.822;2022-09-01T02:10:23;100909.06;;;24.53;41.66
62544;BME280;48597;49.030;1.822;2022-09-01T02:12:49;100913.75;;;24.51;41.85
62544;BME280;48597;49.030;1.822;2022-09-01T02:15:15;100914.44;;;24.53;41.66
62544;BME280;48597;49.030;1.822;2022-09-01T02:17:40;100911.91;;;24.52;41.58
62544;BME280;48597;49.030;1.822;2022-09-01T02:20:08;100914.59;;;24.52;41.73
62544;BME280;48597;49.030;1.822;2022-09-01T02:22:33;100913.75;;;24.51;41.76
62544;BME280;48597;49.030;1.822;2022-09-01T02:25:03;100916.44;;;24.51;41.83
62544;BME280;48597;49.030;1.822;2022-09-01T02:27:28;100915.63;;;24.51;41.81
62544;BME280;48597;49.030;1.822;2022-09-01T02:29:54;100910.25;;;24.51;41.67
62544;BME280;48597;49.030;1.822;2022-09-01T02:32:20;100916.44;;;24.51;41.73
62544;BME280;48597;49.030;1.822;2022-09-01T02:34:48;100910.25;;;24.51;41.93
62544;BME280;48597;49.030;1.822;2022-09-01T02:37:20;100913.13;;;24.49;41.87
62544;BME280;48597;49.030;1.822;2022-09-01T02:39:53;100907.75;;;24.49;41.74
62544;BME280;48597;49.030;1.822;2022-09-01T02:42:20;100911.41;;;24.48;41.80
62544;BME280;48597;49.030;1.822;2022-09-01T02:44:55;100913.13;;;24.49;41.89
62544;BME280;48597;49.030;1.822;2022-09-01T02:47:22;100908.72;;;24.48;41.75
62544;BME280;48597;49.030;1.822;2022-09-01T02:49:50;100911.41;;;24.48;41.73
62544;BME280;48597;49.030;1.822;2022-09-01T02:52:16;100908.91;;;24.46;41.62
62544;BME280;48597;49.030;1.822;2022-09-01T02:54:42;100909.75;;;24.47;41.47
62544;BME280;48597;49.030;1.822;2022-09-01T02:57:10;100902.72;;;24.46;41.77
62544;BME280;48597;49.030;1.822;2022-09-01T02:59:36;100912.44;;;24.47;41.69
62544;BME280;48597;49.030;1.822;2022-09-01T03:02:02;100910.78;;;24.46;41.67
62544;BME280;48597;49.030;1.822;2022-09-01T03:04:28;100916.16;;;24.46;41.63
62544;BME280;48597;49.030;1.822;2022-09-01T03:07:00;100902.91;;;24.44;41.59
62544;BME280;48597;49.030;1.822;2022-09-01T03:09:26;100902.03;;;24.44;41.87
62544;BME280;48597;49.030;1.822;2022-09-01T03:11:53;100903.91;;;24.43;41.26
62544;BME280;48597;49.030;1.822;2022-09-01T03:14:20;100897.69;;;24.43;41.77
62544;BME280;48597;49.030;1.822;2022-09-01T03:16:46;100892.31;;;24.43;41.50
62544;BME280;48597;49.030;1.822;2022-09-01T03:19:11;100890.44;;;24.43;41.42
62544;BME280;48597;49.030;1.822;2022-09-01T03:21:40;100887.94;;;24.42;41.56
62544;BME280;48597;49.030;1.822;2022-09-01T03:24:07;100888.97;;;24.41;41.55
62544;BME280;48597;49.030;1.822;2022-09-01T03:26:33;100881.88;;;24.40;41.72
62544;BME280;48597;49.030;1.822;2022-09-01T03:29:00;100887.13;;;24.41;41.60
62544;BME280;48597;49.030;1.822;2022-09-01T03:31:27;100890.78;;;24.40;41.55
62544;BME280;48597;49.030;1.822;2022-09-01T03:33:54;100889.81;;;24.41;41.47
62544;BME280;48597;49.030;1.822;2022-09-01T03:36:23;100883.59;;;24.41;41.54
62544;BME280;48597;49.030;1.822;2022-09-01T03:38:50;100881.06;;;24.39;41.62
62544;BME280;48597;49.030;1.822;2022-09-01T03:41:18;100885.59;;;24.39;41.33
62544;BME280;48597;49.030;1.822;2022-09-01T03:43:46;100884.78;;;24.38;41.54
62544;BME280;48597;49.030;1.822;2022-09-01T03:46:12;100887.47;;;24.38;41.45
62544;BME280;48597;49.030;1.822;2022-09-01T03:48:45;100884.94;;;24.37;41.47
62544;BME280;48597;49.030;1.822;2022-09-01T03:51:11;100883.22;;;24.36;41.29
62544;BME280;48597;49.030;1.822;2022-09-01T03:53:38;100875.16;;;24.36;41.48
62544;BME280;48597;49.030;1.822;2022-09-01T03:56:04;100877.84;;;24.36;41.62
62544;BME280;48597;49.030;1.822;2022-09-01T03:58:30;100872.66;;;24.34;41.65
62544;BME280;48597;49.030;1.822;2022-09-01T04:00:57;100870.63;;;24.36;41.33
62544;BME280;48597;49.030;1.822;2022-09-01T04:03:29;100868.13;;;24.35;41.73
62544;BME280;48597;49.030;1.822;2022-09-01T04:05:56;100871.84;;;24.34;41.46
62544;BME280;48597;49.030;1.822;2022-09-01T04:08:23;100875.34;;;24.34;41.42
62544;BME280;48597;49.030;1.822;2022-09-01T04:10:57;100872.66;;;24.34;41.34
62544;BME280;48597;49.030;1.822;2022-09-01T04:13:30;100871.00;;;24.33;41.27
62544;BME280;48597;49.030;1.822;2022-09-01T04:15:57;100873.69;;;24.33;41.55
62544;BME280;48597;49.030;1.822;2022-09-01T04:18:23;100871.16;;;24.32;41.44
62544;BME280;48597;49.030;1.822;2022-09-01T04:20:55;100873.84;;;24.32;41.37
62544;BME280;48597;49.030;1.822;2022-09-01T04:23:32;100874.88;;;24.31;41.28
62544;BME280;48597;49.030;1.822;2022-09-01T04:26:01;100871.34;;;24.30;41.17
62544;BME280;48597;49.030;1.822;2022-09-01T04:28:35;100871.34;;;24.30;41.24
62544;BME280;48597;49.030;1.822;2022-09-01T04:31:03;100874.03;;;24.30;41.52
62544;BME280;48597;49.030;1.822;2022-09-01T04:33:33;100865.97;;;24.30;41.24
62544;BME280;48597;49.030;1.822;2022-09-01T04:36:04;100857.06;;;24.30;41.14
62544;BME280;48597;49.030;1.822;2022-09-01T04:38:31;100863.44;;;24.29;41.49
62544;BME280;48597;49.030;1.822;2022-09-01T04:41:02;100861.78;;;24.28;41.32
62544;BME280;48597;49.030;1.822;2022-09-01T04:43:28;100866.13;;;24.29;41.03
62544;BME280;48597;49.030;1.822;2022-09-01T04:45:53;100855.56;;;24.27;41.31
62544;BME280;48597;49.030;1.822;2022-09-01T04:48:20;100869.00;;;24.27;41.38
62544;BME280;48597;49.030;1.822;2022-09-01T04:50:46;100867.34;;;24.26;41.52
62544;BME280;48597;49.030;1.822;2022-09-01T04:53:14;100858.44;;;24.25;41.14
62544;BME280;48597;49.030;1.822;2022-09-01T04:55:41;100862.13;;;24.24;41.22
62544;BME280;48597;49.030;1.822;2022-09-01T04:58:10;100866.50;;;24.25;41.20
62544;BME280;48597;49.030;1.822;2022-09-01T05:00:38;100870.19;;;24.24;41.10
62544;BME280;48597;49.030;1.822;2022-09-01T05:03:05;100860.47;;;24.23;40.91
62544;BME280;48597;49.030;1.822;2022-09-01T05:05:38;100867.50;;;24.24;41.25
62544;BME280;48597;49.030;1.822;2022-09-01T05:08:07;100863.34;;;24.22;41.08
62544;BME280;48597;49.030;1.822;2022-09-01T05:10:39;100865.19;;;24.21;41.00
62544;BME280;48597;49.030;1.822;2022-09-01T05:13:07;100862.50;;;24.21;40.99
62544;BME280;48597;49.030;1.822;2022-09-01T05:15:36;100860.81;;;24.20;41.02
62544;BME280;48597;49.030;1.822;2022-09-01T05:18:02;100856.28;;;24.21;41.44
62544;BME280;48597;49.030;1.822;2022-09-01T05:20:36;100866.19;;;24.20;41.00
62544;BME280;48597;49.030;1.822;2022-09-01T05:23:02;100869.91;;;24.19;41.28
62544;BME280;48597;49.030;1.822;2022-09-01T05:25:29;100865.34;;;24.20;41.16
62544;BME280;48597;49.030;1.822;2022-09-01T05:27:55;100862.84;;;24.18;40.95
62544;BME280;48597;49.030;1.822;2022-09-01T05:30:22;100864.53;;;24.19;41.39
62544;BME280;48597;49.030;1.822;2022-09-01T05:32:48;100862.03;;;24.18;41.19
62544;BME280;48597;49.030;1.822;2022-09-01T05:35:15;100867.41;;;24.18;40.97
62544;BME280;48597;49.030;1.822;2022-09-01T05:37:40;100868.22;;;24.18;41.27
62544;BME280;48597;49.030;1.822;2022-09-01T05:40:08;100864.72;;;24.18;41.07
62544;BME280;48597;49.030;1.822;2022-09-01T05:42:41;100867.56;;;24.16;41.10
62544;BME280;48597;49.030;1.822;2022-09-01T05:45:07;100870.09;;;24.18;41.18
62544;BME280;48597;49.030;1.822;2022-09-01T05:47:32;100866.56;;;24.17;41.09
62544;BME280;48597;49.030;1.822;2022-09-01T05:50:01;100865.69;;;24.17;41.29
62544;BME280;48597;49.030;1.822;2022-09-01T05:52:29;100867.56;;;24.16;40.91
62544;BME280;48597;49.030;1.822;2022-09-01T05:54:58;100871.06;;;24.17;41.14
62544;BME280;48597;49.030;1.822;2022-09-01T05:57:24;100866.56;;;24.17;41.19
62544;BME280;48597;49.030;1.822;2022-09-01T05:59:50;100866.72;;;24.16;41.17
62544;BME280;48597;49.030;1.822;2022-09-01T06:02:19;100864.03;;;24.16;41.09
62544;BME280;48597;49.030;1.822;2022-09-01T06:04:46;100869.41;;;24.16;41.01
62544;BME280;48597;49.030;1.822;2022-09-01T06:07:14;100869.41;;;24.16;40.90
62544;BME280;48597;49.030;1.822;2022-09-01T06:09:45;100868.59;;;24.15;41.15
62544;BME280;48597;49.030;1.822;2022-09-01T06:12:12;100863.19;;;24.15;40.79
62544;BME280;48597;49.030;1.822;2022-09-01T06:14:49;100870.25;;;24.16;40.89
62544;BME280;48597;49.030;1.822;2022-09-01T06:17:17;100859.50;;;24.16;40.96
62544;BME280;48597;49.030;1.822;2022-09-01T06:19:46;100874.63;;;24.17;41.08
62544;BME280;48597;49.030;1.822;2022-09-01T06:22:12;100870.25;;;24.16;41.26
62544;BME280;48597;49.030;1.822;2022-09-01T06:24:38;100870.25;;;24.16;40.91
62544;BME280;48597;49.030;1.822;2022-09-01T06:27:06;100875.63;;;24.16;40.91
62544;BME280;48597;49.030;1.822;2022-09-01T06:29:35;100873.97;;;24.15;41.04
62544;BME280;48597;49.030;1.822;2022-09-01T06:32:04;100870.25;;;24.16;40.94
62544;BME280;48597;49.030;1.822;2022-09-01T06:34:34;100865.91;;;24.15;41.30
62544;BME280;48597;49.030;1.822;2022-09-01T06:37:00;100867.56;;;24.16;40.95
62544;BME280;48597;49.030;1.822;2022-09-01T06:39:25;100871.06;;;24.17;41.12
62544;BME280;48597;49.030;1.822;2022-09-01T06:41:51;100872.78;;;24.18;40.90
62544;BME280;48597;49.030;1.822;2022-09-01T06:44:21;100867.41;;;24.18;40.89
62544;BME280;48597;49.030;1.822;2022-09-01T06:46:51;100871.56;;;24.20;40.85
62544;BME280;48597;49.030;1.822;2022-09-01T06:49:16;100864.53;;;24.19;41.06
62544;BME280;48597;49.030;1.822;2022-09-01T06:51:42;100858.31;;;24.19;41.20
62544;BME280;48597;49.030;1.822;2022-09-01T06:54:07;100861.66;;;24.21;41.09
62544;BME280;48597;49.030;1.822;2022-09-01T06:56:36;100871.41;;;24.22;41.05
62544;BME280;48597;49.030;1.822;2022-09-01T06:59:02;100865.84;;;24.23;41.04
62544;BME280;48597;49.030;1.822;2022-09-01T07:01:30;100865.84;;;24.23;41.13
62544;BME280;48597;49.030;1.822;2022-09-01T07:03:56;100870.88;;;24.27;41.19
62544;BME280;48597;49.030;1.822;2022-09-01T07:06:23;100866.50;;;24.25;41.12
62544;BME280;48597;49.030;1.822;2022-09-01T07:08:52;100865.50;;;24.27;41.21
62544;BME280;48597;49.030;1.822;2022-09-01T07:11:23;100875.91;;;24.30;41.30
62544;BME280;48597;49.030;1.822;2022-09-01T07:13:51;100876.72;;;24.30;41.50
62544;BME280;48597;49.030;1.822;2022-09-01T07:16:19;100864.31;;;24.29;41.44
62544;BME280;48597;49.030;1.822;2022-09-01T07:18:46;100866.63;;;24.32;41.41
62544;BME280;48597;49.030;1.822;2022-09-01T07:21:12;100869.50;;;24.31;41.59
62544;BME280;48597;49.030;1.822;2022-09-01T07:23:37;100869.50;;;24.31;41.26
62544;BME280;48597;49.030;1.822;2022-09-01T07:26:05;100867.63;;;24.31;41.44
62544;BME280;48597;49.030;1.822;2022-09-01T07:28:31;100873.84;;;24.32;41.51
62544;BME280;48597;49.030;1.822;2022-09-01T07:30:56;100873.00;;;24.31;41.52
62544;BME280;48597;49.030;1.822;2022-09-01T07:33:23;100863.09;;;24.32;41.89
62544;BME280;48597;49.030;1.822;2022-09-01T07:35:49;100869.16;;;24.34;42.38
62544;BME280;48597;49.030;1.822;2022-09-01T07:38:20;100866.44;;;24.34;42.79
62544;BME280;48597;49.030;1.822;2022-09-01T07:40:46;100873.31;;;24.36;43.29
62544;BME280;48597;49.030;1.822;2022-09-01T07:45:50;100861.03;;;24.42;42.68
62544;BME280;48597;49.030;1.822;2022-09-01T07:48:17;100864.38;;;24.44;43.18
62544;BME280;48597;49.030;1.822;2022-09-01T07:50:46;100865.88;;;24.46;43.22
62544;BME280;48597;49.030;1.822;2022-09-01T07:53:14;100860.31;;;24.48;43.24
62544;BME280;48597;49.030;1.822;2022-09-01T07:55:45;100860.97;;;24.50;43.10
62544;BME280;48597;49.030;1.822;2022-09-01T07:58:12;100863.31;;;24.53;43.66
62544;BME280;48597;49.030;1.822;2022-09-01T08:00:41;100864.78;;;24.56;43.56
62544;BME280;48597;49.030;1.822;2022-09-01T08:03:11;100869.81;;;24.59;43.89
62544;BME280;48597;49.030;1.822;2022-09-01T08:05:37;100872.34;;;24.60;43.98
62544;BME280;48597;49.030;1.822;2022-09-01T08:08:02;100870.31;;;24.62;43.68
62544;BME280;48597;49.030;1.822;2022-09-01T08:10:29;100875.31;;;24.65;43.85
62544;BME280;48597;49.030;1.822;2022-09-01T08:12:55;100873.28;;;24.67;44.05
62544;BME280;48597;49.030;1.822;2022-09-01T08:15:20;100870.59;;;24.67;43.75
62544;BME280;48597;49.030;1.822;2022-09-01T08:17:46;100869.59;;;24.68;43.90
62544;BME280;48597;49.030;1.822;2022-09-01T08:20:12;100873.75;;;24.71;43.96
62544;BME280;48597;49.030;1.822;2022-09-01T08:22:37;100874.78;;;24.70;43.79
62544;BME280;48597;49.030;1.822;2022-09-01T08:25:08;100878.97;;;24.72;43.91
62544;BME280;48597;49.030;1.822;2022-09-01T08:27:35;100878.59;;;24.76;43.70
62544;BME280;48597;49.030;1.822;2022-09-01T08:30:06;100875.53;;;24.79;43.85
62544;BME280;48597;49.030;1.822;2022-09-01T08:32:33;100884.28;;;24.81;44.05
62544;BME280;48597;49.030;1.822;2022-09-01T08:34:59;100880.56;;;24.82;43.95
62544;BME280;48597;49.030;1.822;2022-09-01T08:37:25;100887.63;;;24.83;43.98
62544;BME280;48597;49.030;1.822;2022-09-01T08:39:51;100894.69;;;24.84;44.24
62544;BME280;48597;49.030;1.822;2022-09-01T08:42:42;100891.81;;;24.85;44.16
62544;BME280;48597;49.030;1.822;2022-09-01T08:45:14;100884.38;;;24.87;44.08
62544;BME280;48597;49.030;1.822;2022-09-01T08:47:42;100889.75;;;24.87;44.13
62544;BME280;48597;49.030;1.822;2022-09-01T08:50:09;100896.00;;;24.88;44.43
62544;BME280;48597;49.030;1.822;2022-09-01T08:52:40;100892.94;;;24.91;44.06
62544;BME280;48597;49.030;1.822;2022-09-01T08:55:17;100897.31;;;24.92;44.44
62544;BME280;48597;49.030;1.822;2022-09-01T08:57:50;100891.94;;;24.92;44.60
62544;BME280;48597;49.030;1.822;2022-09-01T09:00:19;100880.13;;;24.93;44.45
62544;BME280;48597;49.030;1.822;2022-09-01T09:08:50;100890.72;;;24.94;44.42
62544;BME280;48597;49.030;1.822;2022-09-01T09:16:36;100883.56;;;25.02;44.74
62544;BME280;48597;49.030;1.822;2022-09-01T09:21:45;100885.09;;;25.04;44.51
62544;BME280;48597;49.030;1.822;2022-09-01T09:24:22;100885.25;;;25.03;44.82
62544;BME280;48597;49.030;1.822;2022-09-01T09:26:51;100879.69;;;25.04;44.48
62544;BME280;48597;49.030;1.822;2022-09-01T09:29:18;100881.56;;;25.04;44.60
62544;BME280;48597;49.030;1.822;2022-09-01T09:31:46;100875.31;;;25.03;44.80
62544;BME280;48597;49.030;1.822;2022-09-01T09:34:38;100873.28;;;25.05;44.61
62544;BME280;48597;49.030;1.822;2022-09-01T09:40:21;100868.53;;;25.07;44.60
62544;BME280;48597;49.030;1.822;2022-09-01T09:48:08;100867.53;;;25.08;45.10
62544;BME280;48597;49.030;1.822;2022-09-01T09:50:39;100860.66;;;25.06;45.47
62544;BME280;48597;49.030;1.822;2022-09-01T09:55:35;100860.28;;;25.09;45.20
62544;BME280;48597;49.030;1.822;2022-09-01T09:58:09;100862.16;;;25.08;45.27
62544;BME280;48597;49.030;1.822;2022-09-01T10:00:36;100862.81;;;25.10;45.18
62544;BME280;48597;49.030;1.822;2022-09-01T10:03:05;100862.81;;;25.10;45.15
62544;BME280;48597;49.030;1.822;2022-09-01T10:05:47;100849.34;;;25.10;45.13
62544;BME280;48597;49.030;1.822;2022-09-01T10:11:02;100849.00;;;25.13;45.43
62544;BME280;48597;49.030;1.822;2022-09-01T10:13:28;100860.78;;;25.12;45.32
62544;BME280;48597;49.030;1.822;2022-09-01T10:15:57;100855.03;;;25.15;45.13
62544;BME280;48597;49.030;1.822;2022-09-01T10:18:30;100847.81;;;25.16;45.10
62544;BME280;48597;49.030;1.822;2022-09-01T10:21:00;100853.19;;;25.16;45.21
62544;BME280;48597;49.030;1.822;2022-09-01T10:23:28;100851.13;;;25.18;45.13
62544;BME280;48597;49.030;1.822;2022-09-01T10:25:59;100845.75;;;25.18;45.33
62544;BME280;48597;49.030;1.822;2022-09-01T10:28:27;100844.53;;;25.20;45.29
62544;BME280;48597;49.030;1.822;2022-09-01T10:30:54;100846.41;;;25.20;45.39
62544;BME280;48597;49.030;1.822;2022-09-01T10:33:21;100841.84;;;25.20;45.38
62544;BME280;48597;49.030;1.822;2022-09-01T10:35:50;100837.09;;;25.22;45.94
62544;BME280;48597;49.030;1.822;2022-09-01T10:38:20;100838.78;;;25.24;45.56
62544;BME280;48597;49.030;1.822;2022-09-01T10:40:48;100827.00;;;25.25;45.82
62544;BME280;48597;49.030;1.822;2022-09-01T10:48:49;100826.63;;;25.28;45.36
62544;BME280;48597;49.030;1.822;2022-09-01T10:56:21;100834.97;;;25.33;45.60
62544;BME280;48597;49.030;1.822;2022-09-01T10:59:09;100827.94;;;25.32;45.53
62544;BME280;48597;49.030;1.822;2022-09-01T11:07:01;100818.25;;;25.37;45.77
62544;BME280;48597;49.030;1.822;2022-09-01T11:14:50;100824.31;;;25.39;45.75
62544;BME280;48597;49.030;1.822;2022-09-01T11:17:24;100831.56;;;25.39;45.84
62544;BME280;48597;49.030;1.822;2022-09-01T11:25:51;100818.72;;;25.41;45.54
62544;BME280;48597;49.030;1.822;2022-09-01T11:34:19;100815.47;;;25.45;45.62
62544;BME280;48597;49.030;1.822;2022-09-01T11:36:53;100814.44;;;25.46;45.47
62544;BME280;48597;49.030;1.822;2022-09-01T11:44:55;100805.34;;;25.48;45.83
62544;BME280;48597;49.030;1.822;2022-09-01T11:47:26;100801.41;;;25.50;45.82
62544;BME280;48597;49.030;1.822;2022-09-01T11:50:07;100806.81;;;25.50;46.10
62544;BME280;48597;49.030;1.822;2022-09-01T11:52:41;100801.41;;;25.50;46.22
62544;BME280;48597;49.030;1.822;2022-09-01T11:55:08;100799.38;;;25.52;45.99
62544;BME280;48597;49.030;1.822;2022-09-01T11:57:39;100800.41;;;25.51;46.04
62544;BME280;48597;49.030;1.822;2022-09-01T12:00:13;100797.72;;;25.51;46.00
62544;BME280;48597;49.030;1.822;2022-09-01T12:02:50;100793.34;;;25.50;45.98
62544;BME280;48597;49.030;1.822;2022-09-01T12:05:34;100792.13;;;25.53;45.94
62544;BME280;48597;49.030;1.822;2022-09-01T12:08:05;100794.00;;;25.52;45.73
62544;BME280;48597;49.030;1.822;2022-09-01T12:10:38;100799.38;;;25.52;45.68
62544;BME280;48597;49.030;1.822;2022-09-01T12:13:17;100801.03;;;25.53;45.92
62544;BME280;48597;49.030;1.822;2022-09-01T12:15:42;100798.34;;;25.53;45.60
62544;BME280;48597;49.030;1.822;2022-09-01T12:18:18;100795.66;;;25.53;45.55
62544;BME280;48597;49.030;1.822;2022-09-01T12:20:45;100792.97;;;25.53;45.65
62544;BME280;48597;49.030;1.822;2022-09-01T12:23:25;100784.72;;;25.55;45.62
62544;BME280;48597;49.030;1.822;2022-09-01T12:25:56;100791.75;;;25.56;45.66
62544;BME280;48597;49.030;1.822;2022-09-01T12:28:24;100788.88;;;25.57;45.53
62544;BME280;48597;49.030;1.822;2022-09-01T12:30:51;100788.03;;;25.57;45.53
62544;BME280;48597;49.030;1.822;2022-09-01T12:33:18;100790.53;;;25.58;45.57
62544;BME280;48597;49.030;1.822;2022-09-01T12:35:45;100790.53;;;25.58;45.50
62544;BME280;48597;49.030;1.822;2022-09-01T12:40:46;100782.44;;;25.58;45.44
62544;BME280;48597;49.030;1.822;2022-09-01T12:43:37;100779.75;;;25.58;45.57
62544;BME280;48597;49.030;1.822;2022-09-01T12:46:04;100783.09;;;25.60;45.29
62544;BME280;48597;49.030;1.822;2022-09-01T12:48:35;100773.16;;;25.61;45.44
62544;BME280;48597;49.030;1.822;2022-09-01T12:51:21;100772.31;;;25.60;45.21
62544;BME280;48597;49.030;1.822;2022-09-01T12:53:57;100774.81;;;25.62;45.19
62544;BME280;48597;49.030;1.822;2022-09-01T12:56:26;100781.06;;;25.62;45.15
62544;BME280;48597;49.030;1.822;2022-09-01T12:59:08;100777.50;;;25.62;45.16
62544;BME280;48597;49.030;1.822;2022-09-01T13:01:36;100782.72;;;25.63;45.20
62544;BME280;48597;49.030;1.822;2022-09-01T13:06:47;100771.13;;;25.63;45.01
62544;BME280;48597;49.030;1.822;2022-09-01T13:09:13;100769.25;;;25.63;45.19
62544;BME280;48597;49.030;1.822;2022-09-01T13:11:39;100768.44;;;25.63;45.05
62544;BME280;48597;49.030;1.822;2022-09-01T13:14:06;100760.13;;;25.64;45.17
62544;BME280;48597;49.030;1.822;2022-09-01T13:16:33;100761.81;;;25.65;44.90
62544;BME280;48597;49.030;1.822;2022-09-01T13:18:59;100762.84;;;25.64;45.06
62544;BME280;48597;49.030;1.822;2022-09-01T13:21:25;100754.56;;;25.66;45.00
62544;BME280;48597;49.030;1.822;2022-09-01T13:23:52;100749.00;;;25.67;45.10
62544;BME280;48597;49.030;1.822;2022-09-01T13:26:17;100742.94;;;25.65;44.79
62544;BME280;48597;49.030;1.822;2022-09-01T13:28:43;100750.03;;;25.66;44.82
62544;BME280;48597;49.030;1.822;2022-09-01T13:31:10;100740.91;;;25.67;44.66
62544;BME280;48597;49.030;1.822;2022-09-01T13:33:36;100737.19;;;25.68;44.91
62544;BME280;48597;49.030;1.822;2022-09-01T13:36:03;100747.97;;;25.68;44.90
62544;BME280;48597;49.030;1.822;2022-09-01T13:38:29;100746.28;;;25.67;44.85
62544;BME280;48597;49.030;1.822;2022-09-01T13:40:56;100736.34;;;25.68;44.80
62544;BME280;48597;49.030;1.822;2022-09-01T13:43:22;100735.50;;;25.67;44.68
62544;BME280;48597;49.030;1.822;2022-09-01T13:45:51;100741.72;;;25.68;44.80
62544;BME280;48597;49.030;1.822;2022-09-01T13:48:17;100741.53;;;25.69;44.77
62544;BME280;48597;49.030;1.822;2022-09-01T13:50:46;100739.88;;;25.68;44.82
62544;BME280;48597;49.030;1.822;2022-09-01T13:53:14;100736.13;;;25.69;44.69
62544;BME280;48597;49.030;1.822;2022-09-01T13:55:40;100728.06;;;25.69;44.79
62544;BME280;48597;49.030;1.822;2022-09-01T13:58:06;100725.34;;;25.69;44.76
62544;BME280;48597;49.030;1.822;2022-09-01T14:00:35;100729.53;;;25.72;44.81
62544;BME280;48597;49.030;1.822;2022-09-01T14:03:09;100724.34;;;25.70;44.41
62544;BME280;48597;49.030;1.822;2022-09-01T14:05:38;100726.19;;;25.70;44.54
62544;BME280;48597;49.030;1.822;2022-09-01T14:08:05;100723.50;;;25.70;44.69
62544;BME280;48597;49.030;1.822;2022-09-01T14:10:31;100724.34;;;25.70;44.67
62544;BME280;48597;49.030;1.822;2022-09-01T14:12:57;100727.06;;;25.70;44.62
62544;BME280;48597;49.030;1.822;2022-09-01T14:15:23;100718.97;;;25.70;44.53